Terminal Aerodrome Forecast
Issued by NWS

Home | Current Version | Previous Version | Graphics & Text | Print | Product List | Glossary On
Versions: 1 2 3 4 5 6 7 8 9 10 11 12 13 14 15 16 17 18 19 20 21 22 23 24 25
000
FTUS43 KTOP 142100 AAB
TAFMHK
TAF AMD
KMHK 142105Z 1421/1518 16015G22KT P6SM OVC020
     FM142300 13012KT 3SM SHRA BR BKN012 OVC025
     FM150400 14009KT 5SM BR BKN025
     FM151000 15009KT 4SM -SHRA BR BKN012
     FM151300 20012KT P6SM BKN025
     FM151500 27014G22KT P6SM OVC015=

USA.gov is the U.S. government's official web portal to all federal, state and local government web resources and services.